Terminal Aerodrome Forecast
Issued by NWS

Current Version | Previous Version | Text Only | Print | Product List | Glossary On
Versions: 1 2 3 4 5 6 7 8 9 10 11 12 13 14 15 16 17
000
FTUS44 KBMX 261100
TAFMGM
TAF
KMGM 261120Z 2612/2712 28012KT P6SM SCT025 OVC035
     FM261300 30012KT P6SM OVC020
     FM261700 30013G22KT P6SM BKN035
     FM262200 31007KT P6SM SKC
     FM270700 29003KT P6SM SKC=

USA.gov is the U.S. government's official web portal to all federal, state and local government web resources and services.